sensor_id;sensor_type;location;lat;lon;timestamp;temperature;humidity
42683;DHT22;28293;50.930;3.464;2023-03-01T00:01:48;0.50;69.20
42683;DHT22;28293;50.930;3.464;2023-03-01T00:04:14;0.50;69.50
42683;DHT22;28293;50.930;3.464;2023-03-01T00:06:40;0.50;69.70
42683;DHT22;28293;50.930;3.464;2023-03-01T00:09:07;0.50;70.10
42683;DHT22;28293;50.930;3.464;2023-03-01T00:11:33;0.50;70.30
42683;DHT22;28293;50.930;3.464;2023-03-01T00:14:00;0.50;70.60
42683;DHT22;28293;50.930;3.464;2023-03-01T00:16:31;0.60;70.70
42683;DHT22;28293;50.930;3.464;2023-03-01T00:18:59;0.50;71.10
42683;DHT22;28293;50.930;3.464;2023-03-01T00:21:25;0.50;71.20
42683;DHT22;28293;50.930;3.464;2023-03-01T00:23:52;0.50;71.60
42683;DHT22;28293;50.930;3.464;2023-03-01T00:26:19;0.50;71.90
42683;DHT22;28293;50.930;3.464;2023-03-01T00:28:45;0.60;72.00
42683;DHT22;28293;50.930;3.464;2023-03-01T00:31:14;0.60;72.10
42683;DHT22;28293;50.930;3.464;2023-03-01T00:33:40;0.60;72.20
42683;DHT22;28293;50.930;3.464;2023-03-01T00:36:06;0.60;72.30
42683;DHT22;28293;50.930;3.464;2023-03-01T00:38:36;0.60;72.50
42683;DHT22;28293;50.930;3.464;2023-03-01T00:41:06;0.50;72.50
42683;DHT22;28293;50.930;3.464;2023-03-01T00:43:32;0.60;72.80
42683;DHT22;28293;50.930;3.464;2023-03-01T00:46:06;0.50;73.00
42683;DHT22;28293;50.930;3.464;2023-03-01T00:48:32;0.50;73.30
42683;DHT22;28293;50.930;3.464;2023-03-01T00:51:07;0.50;73.70
42683;DHT22;28293;50.930;3.464;2023-03-01T00:53:34;0.50;74.10
42683;DHT22;28293;50.930;3.464;2023-03-01T00:56:00;0.50;74.30
42683;DHT22;28293;50.930;3.464;2023-03-01T00:58:27;0.50;74.70
42683;DHT22;28293;50.930;3.464;2023-03-01T01:00:52;0.50;75.10
42683;DHT22;28293;50.930;3.464;2023-03-01T01:03:18;0.50;75.30
42683;DHT22;28293;50.930;3.464;2023-03-01T01:05:44;0.50;75.60
42683;DHT22;28293;50.930;3.464;2023-03-01T01:08:10;0.50;75.90
42683;DHT22;28293;50.930;3.464;2023-03-01T01:10:36;0.50;76.10
42683;DHT22;28293;50.930;3.464;2023-03-01T01:13:02;0.40;76.30
42683;DHT22;28293;50.930;3.464;2023-03-01T01:15:27;0.40;76.60
42683;DHT22;28293;50.930;3.464;2023-03-01T01:17:53;0.40;76.80
42683;DHT22;28293;50.930;3.464;2023-03-01T01:20:20;0.40;76.90
42683;DHT22;28293;50.930;3.464;2023-03-01T01:22:46;0.40;77.20
42683;DHT22;28293;50.930;3.464;2023-03-01T01:25:11;0.40;77.30
42683;DHT22;28293;50.930;3.464;2023-03-01T01:27:37;0.30;77.50
42683;DHT22;28293;50.930;3.464;2023-03-01T01:30:03;0.40;77.70
42683;DHT22;28293;50.930;3.464;2023-03-01T01:32:29;0.40;77.80
42683;DHT22;28293;50.930;3.464;2023-03-01T01:34:55;0.40;78.20
42683;DHT22;28293;50.930;3.464;2023-03-01T01:37:21;0.30;78.30
42683;DHT22;28293;50.930;3.464;2023-03-01T01:39:46;0.30;78.60
42683;DHT22;28293;50.930;3.464;2023-03-01T01:42:15;0.40;78.70
42683;DHT22;28293;50.930;3.464;2023-03-01T01:44:46;0.40;78.90
42683;DHT22;28293;50.930;3.464;2023-03-01T01:47:16;0.30;79.70
42683;DHT22;28293;50.930;3.464;2023-03-01T01:49:54;0.30;79.90
42683;DHT22;28293;50.930;3.464;2023-03-01T01:52:33;0.30;80.20
42683;DHT22;28293;50.930;3.464;2023-03-01T01:55:07;0.30;80.70
42683;DHT22;28293;50.930;3.464;2023-03-01T01:57:39;0.30;80.70
42683;DHT22;28293;50.930;3.464;2023-03-01T02:00:15;0.40;81.00
42683;DHT22;28293;50.930;3.464;2023-03-01T02:02:42;0.30;81.10
42683;DHT22;28293;50.930;3.464;2023-03-01T02:05:26;0.30;81.20
42683;DHT22;28293;50.930;3.464;2023-03-01T02:07:54;0.30;81.20
42683;DHT22;28293;50.930;3.464;2023-03-01T02:10:21;0.30;81.70
42683;DHT22;28293;50.930;3.464;2023-03-01T02:12:47;0.20;81.80
42683;DHT22;28293;50.930;3.464;2023-03-01T02:15:13;0.30;81.80
42683;DHT22;28293;50.930;3.464;2023-03-01T02:17:39;0.20;81.90
42683;DHT22;28293;50.930;3.464;2023-03-01T02:20:43;0.20;82.40
42683;DHT22;28293;50.930;3.464;2023-03-01T02:23:11;0.20;82.50
42683;DHT22;28293;50.930;3.464;2023-03-01T02:25:57;0.10;82.50
42683;DHT22;28293;50.930;3.464;2023-03-01T02:28:32;0.20;82.50
42683;DHT22;28293;50.930;3.464;2023-03-01T02:30:59;0.20;82.50
42683;DHT22;28293;50.930;3.464;2023-03-01T02:33:44;0.10;82.70
42683;DHT22;28293;50.930;3.464;2023-03-01T02:36:14;0.10;82.90
42683;DHT22;28293;50.930;3.464;2023-03-01T02:38:41;0.10;83.00
42683;DHT22;28293;50.930;3.464;2023-03-01T02:41:08;0.10;83.20
42683;DHT22;28293;50.930;3.464;2023-03-01T02:43:36;0.00;83.50
42683;DHT22;28293;50.930;3.464;2023-03-01T02:46:06;0.10;83.60
42683;DHT22;28293;50.930;3.464;2023-03-01T02:48:56;0.00;83.70
42683;DHT22;28293;50.930;3.464;2023-03-01T02:51:48;0.00;83.90
42683;DHT22;28293;50.930;3.464;2023-03-01T02:54:21;0.00;84.10
42683;DHT22;28293;50.930;3.464;2023-03-01T02:56:48;0.00;84.30
42683;DHT22;28293;50.930;3.464;2023-03-01T02:59:17;0.00;84.40
42683;DHT22;28293;50.930;3.464;2023-03-01T03:01:43;0.00;84.50
42683;DHT22;28293;50.930;3.464;2023-03-01T03:04:15;0.00;84.70
42683;DHT22;28293;50.930;3.464;2023-03-01T03:06:43;0.00;84.80
42683;DHT22;28293;50.930;3.464;2023-03-01T03:09:09;0.00;84.90
42683;DHT22;28293;50.930;3.464;2023-03-01T03:11:36;0.00;85.00
42683;DHT22;28293;50.930;3.464;2023-03-01T03:14:02;0.00;85.00
42683;DHT22;28293;50.930;3.464;2023-03-01T03:16:28;-3276.70;85.10
42683;DHT22;28293;50.930;3.464;2023-03-01T03:18:55;-3276.70;85.10
42683;DHT22;28293;50.930;3.464;2023-03-01T03:21:31;-3276.70;85.30
42683;DHT22;28293;50.930;3.464;2023-03-01T03:23:57;-3276.70;85.50
42683;DHT22;28293;50.930;3.464;2023-03-01T03:26:23;-3276.70;85.60
42683;DHT22;28293;50.930;3.464;2023-03-01T03:28:48;-3276.70;86.00
42683;DHT22;28293;50.930;3.464;2023-03-01T03:31:14;0.00;86.00
42683;DHT22;28293;50.930;3.464;2023-03-01T03:33:40;0.00;86.00
42683;DHT22;28293;50.930;3.464;2023-03-01T03:36:06;0.00;86.10
42683;DHT22;28293;50.930;3.464;2023-03-01T03:38:32;0.00;86.30
42683;DHT22;28293;50.930;3.464;2023-03-01T03:41:02;0.00;86.40
42683;DHT22;28293;50.930;3.464;2023-03-01T03:43:31;0.00;86.50
42683;DHT22;28293;50.930;3.464;2023-03-01T03:45:57;0.00;86.50
42683;DHT22;28293;50.930;3.464;2023-03-01T03:48:23;0.00;86.50
42683;DHT22;28293;50.930;3.464;2023-03-01T03:50:51;-3276.70;86.70
42683;DHT22;28293;50.930;3.464;2023-03-01T03:53:18;-3276.70;86.80
42683;DHT22;28293;50.930;3.464;2023-03-01T03:55:44;0.00;87.10
42683;DHT22;28293;50.930;3.464;2023-03-01T03:58:11;0.00;87.20
42683;DHT22;28293;50.930;3.464;2023-03-01T04:00:39;0.00;87.30
42683;DHT22;28293;50.930;3.464;2023-03-01T04:03:06;-3276.70;87.30
42683;DHT22;28293;50.930;3.464;2023-03-01T04:05:32;-3276.70;87.20
42683;DHT22;28293;50.930;3.464;2023-03-01T04:07:58;0.00;87.30
42683;DHT22;28293;50.930;3.464;2023-03-01T04:10:31;0.00;87.30
42683;DHT22;28293;50.930;3.464;2023-03-01T04:12:57;-3276.70;87.30
42683;DHT22;28293;50.930;3.464;2023-03-01T04:15:25;-3276.70;87.30
42683;DHT22;28293;50.930;3.464;2023-03-01T04:17:52;0.00;87.50
42683;DHT22;28293;50.930;3.464;2023-03-01T04:20:20;0.00;87.50
42683;DHT22;28293;50.930;3.464;2023-03-01T04:22:52;0.00;87.50
42683;DHT22;28293;50.930;3.464;2023-03-01T04:25:18;0.00;87.40
42683;DHT22;28293;50.930;3.464;2023-03-01T04:27:43;0.00;87.40
42683;DHT22;28293;50.930;3.464;2023-03-01T04:30:10;0.00;87.30
42683;DHT22;28293;50.930;3.464;2023-03-01T04:32:35;0.00;87.10
42683;DHT22;28293;50.930;3.464;2023-03-01T04:35:01;0.00;87.00
42683;DHT22;28293;50.930;3.464;2023-03-01T04:37:27;-3276.70;86.80
42683;DHT22;28293;50.930;3.464;2023-03-01T04:39:53;-3276.70;86.80
42683;DHT22;28293;50.930;3.464;2023-03-01T04:42:19;-3276.60;86.90
42683;DHT22;28293;50.930;3.464;2023-03-01T04:44:45;-3276.60;86.90
42683;DHT22;28293;50.930;3.464;2023-03-01T04:47:12;-3276.60;86.90
42683;DHT22;28293;50.930;3.464;2023-03-01T04:49:38;-3276.50;86.90
42683;DHT22;28293;50.930;3.464;2023-03-01T04:52:04;-3276.50;86.90
42683;DHT22;28293;50.930;3.464;2023-03-01T04:54:31;-3276.50;86.90
42683;DHT22;28293;50.930;3.464;2023-03-01T04:56:58;-3276.50;87.00
42683;DHT22;28293;50.930;3.464;2023-03-01T04:59:24;-3276.50;87.00
42683;DHT22;28293;50.930;3.464;2023-03-01T05:01:51;-3276.50;87.00
42683;DHT22;28293;50.930;3.464;2023-03-01T05:04:17;-3276.40;87.10
42683;DHT22;28293;50.930;3.464;2023-03-01T05:06:43;-3276.50;87.20
42683;DHT22;28293;50.930;3.464;2023-03-01T05:09:09;-3276.50;87.20
42683;DHT22;28293;50.930;3.464;2023-03-01T05:11:34;-3276.40;87.00
42683;DHT22;28293;50.930;3.464;2023-03-01T05:14:10;-3276.40;87.00
42683;DHT22;28293;50.930;3.464;2023-03-01T05:16:36;-3276.40;87.00
42683;DHT22;28293;50.930;3.464;2023-03-01T05:19:03;-3276.40;87.10
42683;DHT22;28293;50.930;3.464;2023-03-01T05:21:39;-3276.40;87.20
42683;DHT22;28293;50.930;3.464;2023-03-01T05:24:25;-3276.40;87.10
42683;DHT22;28293;50.930;3.464;2023-03-01T05:26:52;-3276.40;87.10
42683;DHT22;28293;50.930;3.464;2023-03-01T05:29:23;-3276.40;87.20
42683;DHT22;28293;50.930;3.464;2023-03-01T05:32:01;-3276.40;87.30
42683;DHT22;28293;50.930;3.464;2023-03-01T05:34:30;-3276.40;87.20
42683;DHT22;28293;50.930;3.464;2023-03-01T05:36:56;-3276.40;87.10
42683;DHT22;28293;50.930;3.464;2023-03-01T05:39:23;-3276.40;86.90
42683;DHT22;28293;50.930;3.464;2023-03-01T05:41:55;-3276.30;86.90
42683;DHT22;28293;50.930;3.464;2023-03-01T05:44:21;-3276.30;87.00
42683;DHT22;28293;50.930;3.464;2023-03-01T05:46:47;-3276.30;86.90
42683;DHT22;28293;50.930;3.464;2023-03-01T05:49:13;-3276.30;87.00
42683;DHT22;28293;50.930;3.464;2023-03-01T05:51:40;-3276.30;86.80
42683;DHT22;28293;50.930;3.464;2023-03-01T05:54:06;-3276.30;86.80
42683;DHT22;28293;50.930;3.464;2023-03-01T05:56:34;-3276.30;86.70
42683;DHT22;28293;50.930;3.464;2023-03-01T05:59:00;-3276.30;86.70
42683;DHT22;28293;50.930;3.464;2023-03-01T06:01:26;-3276.30;86.60
42683;DHT22;28293;50.930;3.464;2023-03-01T06:03:52;-3276.20;86.60
42683;DHT22;28293;50.930;3.464;2023-03-01T06:06:18;-3276.30;86.60
42683;DHT22;28293;50.930;3.464;2023-03-01T06:08:43;-3276.20;86.70
42683;DHT22;28293;50.930;3.464;2023-03-01T06:11:09;-3276.20;86.50
42683;DHT22;28293;50.930;3.464;2023-03-01T06:13:35;-3276.20;86.70
42683;DHT22;28293;50.930;3.464;2023-03-01T06:16:00;-3276.20;86.70
42683;DHT22;28293;50.930;3.464;2023-03-01T06:18:26;-3276.10;86.60
42683;DHT22;28293;50.930;3.464;2023-03-01T06:20:55;-3276.20;86.60
42683;DHT22;28293;50.930;3.464;2023-03-01T06:23:22;-3276.10;86.50
42683;DHT22;28293;50.930;3.464;2023-03-01T06:25:48;-3276.10;86.60
42683;DHT22;28293;50.930;3.464;2023-03-01T06:28:14;-3276.10;86.70
42683;DHT22;28293;50.930;3.464;2023-03-01T06:30:39;-3276.10;86.80
42683;DHT22;28293;50.930;3.464;2023-03-01T06:33:05;-3276.10;86.80
42683;DHT22;28293;50.930;3.464;2023-03-01T06:35:31;-3276.20;86.80
42683;DHT22;28293;50.930;3.464;2023-03-01T06:37:58;-3276.10;86.60
42683;DHT22;28293;50.930;3.464;2023-03-01T06:40:24;-3276.10;86.50
42683;DHT22;28293;50.930;3.464;2023-03-01T06:42:51;-3276.20;86.50
42683;DHT22;28293;50.930;3.464;2023-03-01T06:45:18;-3276.20;86.50
42683;DHT22;28293;50.930;3.464;2023-03-01T06:47:44;-3276.20;86.30
42683;DHT22;28293;50.930;3.464;2023-03-01T06:50:10;-3276.20;86.10
42683;DHT22;28293;50.930;3.464;2023-03-01T06:52:36;-3276.20;86.00
42683;DHT22;28293;50.930;3.464;2023-03-01T06:55:03;-3276.20;86.00
42683;DHT22;28293;50.930;3.464;2023-03-01T06:57:28;-3276.30;86.00
42683;DHT22;28293;50.930;3.464;2023-03-01T06:59:54;-3276.30;86.00
42683;DHT22;28293;50.930;3.464;2023-03-01T07:02:20;-3276.30;86.00
42683;DHT22;28293;50.930;3.464;2023-03-01T07:04:46;-3276.30;85.90
42683;DHT22;28293;50.930;3.464;2023-03-01T07:07:11;-3276.30;85.90
42683;DHT22;28293;50.930;3.464;2023-03-01T07:09:37;-3276.30;85.80
42683;DHT22;28293;50.930;3.464;2023-03-01T07:12:03;-3276.40;85.70
42683;DHT22;28293;50.930;3.464;2023-03-01T07:14:28;-3276.40;85.80
42683;DHT22;28293;50.930;3.464;2023-03-01T07:16:55;-3276.40;85.60
42683;DHT22;28293;50.930;3.464;2023-03-01T07:19:21;-3276.50;85.50
42683;DHT22;28293;50.930;3.464;2023-03-01T07:21:47;-3276.50;85.30
42683;DHT22;28293;50.930;3.464;2023-03-01T07:24:13;-3276.50;85.20
42683;DHT22;28293;50.930;3.464;2023-03-01T07:26:39;-3276.60;85.10
42683;DHT22;28293;50.930;3.464;2023-03-01T07:29:06;-3276.70;85.00
42683;DHT22;28293;50.930;3.464;2023-03-01T07:31:32;-3276.70;84.90
42683;DHT22;28293;50.930;3.464;2023-03-01T07:33:57;-3276.70;84.60
42683;DHT22;28293;50.930;3.464;2023-03-01T07:36:24;0.00;84.50
42683;DHT22;28293;50.930;3.464;2023-03-01T07:38:50;0.00;84.30
42683;DHT22;28293;50.930;3.464;2023-03-01T07:41:17;0.00;84.10
42683;DHT22;28293;50.930;3.464;2023-03-01T07:43:43;0.10;84.00
42683;DHT22;28293;50.930;3.464;2023-03-01T07:46:09;0.10;83.80
42683;DHT22;28293;50.930;3.464;2023-03-01T07:48:35;0.20;83.50
42683;DHT22;28293;50.930;3.464;2023-03-01T07:51:02;0.20;83.40
42683;DHT22;28293;50.930;3.464;2023-03-01T07:53:28;0.30;83.10
42683;DHT22;28293;50.930;3.464;2023-03-01T07:56:02;0.40;82.80
42683;DHT22;28293;50.930;3.464;2023-03-01T07:58:28;0.50;82.10
42683;DHT22;28293;50.930;3.464;2023-03-01T08:00:53;0.50;81.90
42683;DHT22;28293;50.930;3.464;2023-03-01T08:03:19;0.60;81.70
42683;DHT22;28293;50.930;3.464;2023-03-01T08:05:45;0.70;81.30
42683;DHT22;28293;50.930;3.464;2023-03-01T08:08:10;0.70;81.20
42683;DHT22;28293;50.930;3.464;2023-03-01T08:10:36;0.80;81.30
42683;DHT22;28293;50.930;3.464;2023-03-01T08:13:02;0.90;81.20
42683;DHT22;28293;50.930;3.464;2023-03-01T08:15:28;1.00;81.00
42683;DHT22;28293;50.930;3.464;2023-03-01T08:17:53;1.10;80.80
42683;DHT22;28293;50.930;3.464;2023-03-01T08:20:19;1.10;80.40
42683;DHT22;28293;50.930;3.464;2023-03-01T08:22:45;1.20;79.70
42683;DHT22;28293;50.930;3.464;2023-03-01T08:25:11;1.40;79.40
42683;DHT22;28293;50.930;3.464;2023-03-01T08:27:36;1.50;79.20
42683;DHT22;28293;50.930;3.464;2023-03-01T08:30:02;1.60;78.80
42683;DHT22;28293;50.930;3.464;2023-03-01T08:32:28;1.80;78.50
42683;DHT22;28293;50.930;3.464;2023-03-01T08:34:54;1.90;78.00
42683;DHT22;28293;50.930;3.464;2023-03-01T08:37:19;2.00;77.70
42683;DHT22;28293;50.930;3.464;2023-03-01T08:39:46;2.20;77.00
42683;DHT22;28293;50.930;3.464;2023-03-01T08:42:11;2.40;76.50
42683;DHT22;28293;50.930;3.464;2023-03-01T08:44:37;2.60;75.30
42683;DHT22;28293;50.930;3.464;2023-03-01T08:47:03;2.80;74.30
42683;DHT22;28293;50.930;3.464;2023-03-01T08:49:30;2.90;72.40
42683;DHT22;28293;50.930;3.464;2023-03-01T08:51:57;3.00;71.10
42683;DHT22;28293;50.930;3.464;2023-03-01T08:54:23;3.10;70.70
42683;DHT22;28293;50.930;3.464;2023-03-01T08:56:49;3.10;68.80
42683;DHT22;28293;50.930;3.464;2023-03-01T08:59:18;3.30;69.80
42683;DHT22;28293;50.930;3.464;2023-03-01T09:01:44;3.40;68.40
42683;DHT22;28293;50.930;3.464;2023-03-01T09:04:10;3.60;68.50
42683;DHT22;28293;50.930;3.464;2023-03-01T09:06:36;3.60;67.50
42683;DHT22;28293;50.930;3.464;2023-03-01T09:09:04;3.60;66.30
42683;DHT22;28293;50.930;3.464;2023-03-01T09:11:30;3.80;66.50
42683;DHT22;28293;50.930;3.464;2023-03-01T09:13:55;4.00;65.80
42683;DHT22;28293;50.930;3.464;2023-03-01T09:16:22;4.20;64.20
42683;DHT22;28293;50.930;3.464;2023-03-01T09:18:54;4.40;63.20
42683;DHT22;28293;50.930;3.464;2023-03-01T09:21:21;4.30;61.40
42683;DHT22;28293;50.930;3.464;2023-03-01T09:23:48;4.30;60.30
42683;DHT22;28293;50.930;3.464;2023-03-01T09:26:19;4.30;59.80
42683;DHT22;28293;50.930;3.464;2023-03-01T09:28:47;4.40;60.00
42683;DHT22;28293;50.930;3.464;2023-03-01T09:31:14;4.60;59.60
42683;DHT22;28293;50.930;3.464;2023-03-01T09:33:40;4.60;59.50
42683;DHT22;28293;50.930;3.464;2023-03-01T09:36:12;4.70;59.50
42683;DHT22;28293;50.930;3.464;2023-03-01T09:38:38;4.90;59.00
42683;DHT22;28293;50.930;3.464;2023-03-01T09:41:35;4.80;58.10
42683;DHT22;28293;50.930;3.464;2023-03-01T09:46:54;4.70;57.30
42683;DHT22;28293;50.930;3.464;2023-03-01T09:49:27;4.70;57.10
42683;DHT22;28293;50.930;3.464;2023-03-01T09:54:40;4.80;56.60
42683;DHT22;28293;50.930;3.464;2023-03-01T10:00:41;5.30;55.60
42683;DHT22;28293;50.930;3.464;2023-03-01T10:03:26;5.00;54.70
42683;DHT22;28293;50.930;3.464;2023-03-01T10:06:08;5.10;55.00
42683;DHT22;28293;50.930;3.464;2023-03-01T10:08:42;5.10;54.50
42683;DHT22;28293;50.930;3.464;2023-03-01T10:11:28;5.40;54.60
42683;DHT22;28293;50.930;3.464;2023-03-01T10:17:09;5.40;54.00
42683;DHT22;28293;50.930;3.464;2023-03-01T10:19:45;5.40;53.50
42683;DHT22;28293;50.930;3.464;2023-03-01T10:24:40;5.20;54.40
42683;DHT22;28293;50.930;3.464;2023-03-01T10:27:22;5.10;54.80
42683;DHT22;28293;50.930;3.464;2023-03-01T10:32:42;5.50;55.20
42683;DHT22;28293;50.930;3.464;2023-03-01T10:35:34;5.60;53.80
42683;DHT22;28293;50.930;3.464;2023-03-01T10:38:11;5.40;55.00
42683;DHT22;28293;50.930;3.464;2023-03-01T10:40:53;5.30;55.00
42683;DHT22;28293;50.930;3.464;2023-03-01T10:43:20;5.30;54.30
42683;DHT22;28293;50.930;3.464;2023-03-01T10:45:47;5.20;55.30
42683;DHT22;28293;50.930;3.464;2023-03-01T10:48:19;5.50;54.90
42683;DHT22;28293;50.930;3.464;2023-03-01T10:50:49;5.70;54.40
42683;DHT22;28293;50.930;3.464;2023-03-01T10:53:31;5.70;53.50
42683;DHT22;28293;50.930;3.464;2023-03-01T10:56:16;5.80;53.80
42683;DHT22;28293;50.930;3.464;2023-03-01T11:01:26;5.60;53.30
42683;DHT22;28293;50.930;3.464;2023-03-01T11:06:34;5.60;54.00
42683;DHT22;28293;50.930;3.464;2023-03-01T11:09:20;5.50;53.90
42683;DHT22;28293;50.930;3.464;2023-03-01T11:11:45;5.60;53.70
42683;DHT22;28293;50.930;3.464;2023-03-01T11:14:21;5.70;52.90
42683;DHT22;28293;50.930;3.464;2023-03-01T11:16:49;5.80;52.90
42683;DHT22;28293;50.930;3.464;2023-03-01T11:19:23;5.90;52.10
42683;DHT22;28293;50.930;3.464;2023-03-01T11:22:11;6.10;51.50
42683;DHT22;28293;50.930;3.464;2023-03-01T11:24:47;6.00;51.60
42683;DHT22;28293;50.930;3.464;2023-03-01T11:27:18;6.10;51.10
42683;DHT22;28293;50.930;3.464;2023-03-01T11:29:48;6.00;50.00
42683;DHT22;28293;50.930;3.464;2023-03-01T11:32:17;6.20;49.60
42683;DHT22;28293;50.930;3.464;2023-03-01T11:35:05;6.10;49.50
42683;DHT22;28293;50.930;3.464;2023-03-01T11:40:26;6.20;49.70
42683;DHT22;28293;50.930;3.464;2023-03-01T11:43:12;6.40;50.30
42683;DHT22;28293;50.930;3.464;2023-03-01T11:46:13;6.30;49.40
42683;DHT22;28293;50.930;3.464;2023-03-01T11:51:23;6.10;49.10
42683;DHT22;28293;50.930;3.464;2023-03-01T11:54:03;6.30;50.40
42683;DHT22;28293;50.930;3.464;2023-03-01T11:56:47;6.40;49.60
42683;DHT22;28293;50.930;3.464;2023-03-01T12:10:29;6.70;47.60
42683;DHT22;28293;50.930;3.464;2023-03-01T12:13:04;6.80;47.30
42683;DHT22;28293;50.930;3.464;2023-03-01T12:15:49;6.80;46.40
42683;DHT22;28293;50.930;3.464;2023-03-01T12:18:45;6.80;46.50
42683;DHT22;28293;50.930;3.464;2023-03-01T12:27:34;6.90;47.00
42683;DHT22;28293;50.930;3.464;2023-03-01T12:33:22;7.20;47.00
42683;DHT22;28293;50.930;3.464;2023-03-01T12:38:50;7.00;47.50
42683;DHT22;28293;50.930;3.464;2023-03-01T12:44:44;7.50;49.20
42683;DHT22;28293;50.930;3.464;2023-03-01T12:47:35;7.50;49.90
42683;DHT22;28293;50.930;3.464;2023-03-01T12:50:20;7.30;48.50
42683;DHT22;28293;50.930;3.464;2023-03-01T12:52:53;7.50;48.10
42683;DHT22;28293;50.930;3.464;2023-03-01T13:01:00;7.60;47.20
42683;DHT22;28293;50.930;3.464;2023-03-01T13:04:02;7.50;47.10
42683;DHT22;28293;50.930;3.464;2023-03-01T13:07:07;7.60;47.40
42683;DHT22;28293;50.930;3.464;2023-03-01T13:17:50;7.50;47.80
42683;DHT22;28293;50.930;3.464;2023-03-01T13:20:30;7.60;47.90
42683;DHT22;28293;50.930;3.464;2023-03-01T13:23:07;7.70;47.00
42683;DHT22;28293;50.930;3.464;2023-03-01T13:25:33;7.70;48.00
42683;DHT22;28293;50.930;3.464;2023-03-01T13:31:55;7.60;49.80
42683;DHT22;28293;50.930;3.464;2023-03-01T13:34:00;7.70;48.50
42683;DHT22;28293;50.930;3.464;2023-03-01T13:44:20;7.30;49.60
42683;DHT22;28293;50.930;3.464;2023-03-01T13:46:48;7.50;49.00
42683;DHT22;28293;50.930;3.464;2023-03-01T13:49:18;7.50;49.40
42683;DHT22;28293;50.930;3.464;2023-03-01T13:51:49;7.50;48.80
42683;DHT22;28293;50.930;3.464;2023-03-01T13:54:17;7.50;49.20
42683;DHT22;28293;50.930;3.464;2023-03-01T13:56:44;7.40;49.40
42683;DHT22;28293;50.930;3.464;2023-03-01T13:59:19;7.60;50.00
42683;DHT22;28293;50.930;3.464;2023-03-01T14:01:52;7.70;48.90
42683;DHT22;28293;50.930;3.464;2023-03-01T14:04:32;7.60;48.50
42683;DHT22;28293;50.930;3.464;2023-03-01T14:07:19;7.60;50.00
42683;DHT22;28293;50.930;3.464;2023-03-01T14:09:48;7.70;49.80
42683;DHT22;28293;50.930;3.464;2023-03-01T14:12:16;7.80;49.40
42683;DHT22;28293;50.930;3.464;2023-03-01T14:17:24;7.50;49.50
42683;DHT22;28293;50.930;3.464;2023-03-01T14:19:58;7.40;50.20
42683;DHT22;28293;50.930;3.464;2023-03-01T14:22:28;7.50;50.50
42683;DHT22;28293;50.930;3.464;2023-03-01T14:25:01;7.40;49.60
42683;DHT22;28293;50.930;3.464;2023-03-01T14:27:37;7.30;49.80
42683;DHT22;28293;50.930;3.464;2023-03-01T14:32:38;7.50;49.20
42683;DHT22;28293;50.930;3.464;2023-03-01T14:35:23;7.60;49.70
42683;DHT22;28293;50.930;3.464;2023-03-01T14:37:50;7.60;48.90
42683;DHT22;28293;50.930;3.464;2023-03-01T14:40:31;7.70;49.20
42683;DHT22;28293;50.930;3.464;2023-03-01T14:43:00;7.60;48.60
42683;DHT22;28293;50.930;3.464;2023-03-01T14:45:29;7.50;49.20
42683;DHT22;28293;50.930;3.464;2023-03-01T14:48:00;7.40;48.60
42683;DHT22;28293;50.930;3.464;2023-03-01T14:50:31;7.30;49.70
42683;DHT22;28293;50.930;3.464;2023-03-01T14:53:00;7.30;49.80
42683;DHT22;28293;50.930;3.464;2023-03-01T14:57:57;7.40;50.00
42683;DHT22;28293;50.930;3.464;2023-03-01T15:00:28;7.30;50.50
42683;DHT22;28293;50.930;3.464;2023-03-01T15:02:56;7.40;50.10
42683;DHT22;28293;50.930;3.464;2023-03-01T15:05:27;7.40;50.10
42683;DHT22;28293;50.930;3.464;2023-03-01T15:07:55;7.20;50.40
42683;DHT22;28293;50.930;3.464;2023-03-01T15:10:35;7.00;50.30
42683;DHT22;28293;50.930;3.464;2023-03-01T15:13:23;7.10;51.30
42683;DHT22;28293;50.930;3.464;2023-03-01T15:15:51;7.40;51.40
42683;DHT22;28293;50.930;3.464;2023-03-01T15:18:22;7.50;51.40
42683;DHT22;28293;50.930;3.464;2023-03-01T15:20:50;7.50;50.40
42683;DHT22;28293;50.930;3.464;2023-03-01T15:23:22;7.30;51.00
42683;DHT22;28293;50.930;3.464;2023-03-01T15:25:48;7.40;51.10
42683;DHT22;28293;50.930;3.464;2023-03-01T15:28:27;7.30;50.90
42683;DHT22;28293;50.930;3.464;2023-03-01T15:33:43;7.20;50.90
42683;DHT22;28293;50.930;3.464;2023-03-01T15:39:03;7.20;51.20
42683;DHT22;28293;50.930;3.464;2023-03-01T15:41:37;7.30;51.30
42683;DHT22;28293;50.930;3.464;2023-03-01T15:46:48;7.30;50.90
42683;DHT22;28293;50.930;3.464;2023-03-01T15:49:39;7.10;51.20
42683;DHT22;28293;50.930;3.464;2023-03-01T15:52:10;7.20;51.60
42683;DHT22;28293;50.930;3.464;2023-03-01T15:54:39;7.10;51.60
42683;DHT22;28293;50.930;3.464;2023-03-01T15:57:11;7.10;51.30
42683;DHT22;28293;50.930;3.464;2023-03-01T15:59:37;7.10;51.00
42683;DHT22;28293;50.930;3.464;2023-03-01T16:02:09;7.00;51.00
42683;DHT22;28293;50.930;3.464;2023-03-01T16:04:34;6.90;51.60
42683;DHT22;28293;50.930;3.464;2023-03-01T16:07:00;7.00;52.00
42683;DHT22;28293;50.930;3.464;2023-03-01T16:09:26;7.10;52.00
42683;DHT22;28293;50.930;3.464;2023-03-01T16:11:53;7.00;52.30
42683;DHT22;28293;50.930;3.464;2023-03-01T16:14:19;6.90;52.70
42683;DHT22;28293;50.930;3.464;2023-03-01T16:16:45;6.90;52.90
42683;DHT22;28293;50.930;3.464;2023-03-01T16:19:13;6.90;52.50
42683;DHT22;28293;50.930;3.464;2023-03-01T16:21:39;6.90;52.40
42683;DHT22;28293;50.930;3.464;2023-03-01T16:24:05;6.80;52.20
42683;DHT22;28293;50.930;3.464;2023-03-01T16:26:31;6.90;52.70
42683;DHT22;28293;50.930;3.464;2023-03-01T16:28:58;6.80;52.30
42683;DHT22;28293;50.930;3.464;2023-03-01T16:31:24;6.80;51.90
42683;DHT22;28293;50.930;3.464;2023-03-01T16:33:56;6.80;52.10
42683;DHT22;28293;50.930;3.464;2023-03-01T16:36:23;6.70;51.90
42683;DHT22;28293;50.930;3.464;2023-03-01T16:38:53;6.60;52.30
42683;DHT22;28293;50.930;3.464;2023-03-01T16:41:21;6.60;52.40
42683;DHT22;28293;50.930;3.464;2023-03-01T16:43:48;6.60;52.60
42683;DHT22;28293;50.930;3.464;2023-03-01T16:46:23;6.60;52.70
42683;DHT22;28293;50.930;3.464;2023-03-01T16:48:49;6.50;53.10
42683;DHT22;28293;50.930;3.464;2023-03-01T16:51:15;6.40;53.10
42683;DHT22;28293;50.930;3.464;2023-03-01T16:53:41;6.50;53.70
42683;DHT22;28293;50.930;3.464;2023-03-01T16:56:10;6.40;53.90
42683;DHT22;28293;50.930;3.464;2023-03-01T16:58:36;6.30;54.20
42683;DHT22;28293;50.930;3.464;2023-03-01T17:01:08;6.20;54.40
42683;DHT22;28293;50.930;3.464;2023-03-01T17:03:34;6.20;54.20
42683;DHT22;28293;50.930;3.464;2023-03-01T17:06:05;6.10;53.80
42683;DHT22;28293;50.930;3.464;2023-03-01T17:08:31;6.10;53.70
42683;DHT22;28293;50.930;3.464;2023-03-01T17:11:03;6.10;53.80
42683;DHT22;28293;50.930;3.464;2023-03-01T17:13:29;6.00;54.00
42683;DHT22;28293;50.930;3.464;2023-03-01T17:15:54;6.00;54.60
42683;DHT22;28293;50.930;3.464;2023-03-01T17:18:20;5.90;54.80
42683;DHT22;28293;50.930;3.464;2023-03-01T17:20:45;5.80;55.00
42683;DHT22;28293;50.930;3.464;2023-03-01T17:23:11;5.70;55.50
42683;DHT22;28293;50.930;3.464;2023-03-01T17:25:42;5.70;55.90